createdAt,value
2018-02-17T09:48:22.911Z,9.50
2018-02-17T09:50:51.222Z,9.70
2018-02-17T09:53:18.752Z,9.70
2018-02-17T09:55:46.287Z,9.80
2018-02-17T09:58:13.844Z,9.80
2018-02-17T10:00:42.139Z,9.90
2018-02-17T10:03:10.427Z,10.00
2018-02-17T10:05:38.740Z,10.10
2018-02-17T10:08:06.292Z,10.10
2018-02-17T10:10:33.833Z,10.10
2018-02-17T10:13:01.423Z,10.20
2018-02-17T10:15:28.986Z,10.30
2018-02-17T10:17:56.512Z,10.30
2018-02-17T10:20:24.087Z,10.30
2018-02-17T10:22:51.624Z,10.40
2018-02-17T10:25:19.915Z,10.40
2018-02-17T10:27:47.457Z,10.30
2018-02-17T10:30:15.764Z,10.60
2018-02-17T10:32:43.274Z,10.80
2018-02-17T10:35:10.832Z,10.60
2018-02-17T10:37:38.377Z,10.70
2018-02-17T10:40:05.948Z,10.80
2018-02-17T10:42:33.463Z,10.80
2018-02-17T10:45:01.044Z,10.90
2018-02-17T10:47:28.558Z,10.90
2018-02-17T10:49:56.831Z,10.90
2018-02-17T10:52:25.160Z,11.10
2018-02-17T10:54:52.681Z,11.20
2018-02-17T10:57:20.999Z,11.20
2018-02-17T10:59:48.520Z,11.40
2018-02-17T11:02:16.839Z,11.30
2018-02-17T11:04:44.352Z,11.30
2018-02-17T11:07:12.668Z,11.40
2018-02-17T11:09:40.171Z,11.60
2018-02-17T11:12:07.731Z,11.40
2018-02-17T11:14:35.265Z,11.40
2018-02-17T11:17:02.831Z,11.40
2018-02-17T11:36:52.560Z,11.40
2018-02-17T11:39:20.076Z,11.40
2018-02-17T11:41:47.627Z,11.40
2018-02-17T11:44:15.176Z,11.40
2018-02-17T11:46:42.714Z,11.50
2018-02-17T11:49:11.017Z,11.40
2018-02-17T11:51:38.544Z,11.50
2018-02-17T11:54:06.083Z,11.40
2018-02-17T11:56:33.626Z,11.50
2018-02-17T11:59:01.176Z,11.40
2018-02-17T12:01:28.714Z,11.50
2018-02-17T12:03:57.017Z,11.60
2018-02-17T12:06:24.546Z,11.50
2018-02-17T12:08:52.873Z,11.50
2018-02-17T12:11:20.396Z,11.50
2018-02-17T12:13:47.919Z,11.50
2018-02-17T12:16:15.430Z,11.60
2018-02-17T12:18:42.968Z,11.60
2018-02-17T12:21:11.261Z,11.70
2018-02-17T12:23:38.841Z,11.70
2018-02-17T12:26:06.360Z,11.70
2018-02-17T12:28:34.640Z,11.70
2018-02-17T12:31:02.952Z,11.70
2018-02-17T12:33:30.482Z,11.70
2018-02-17T12:35:58.787Z,11.70
2018-02-17T12:38:26.302Z,11.70
2018-02-17T12:40:54.678Z,11.70
2018-02-17T12:43:22.206Z,11.80
2018-02-17T12:45:49.768Z,11.70
2018-02-17T12:48:17.312Z,11.70
2018-02-17T12:50:44.916Z,11.70
2018-02-17T12:53:13.228Z,11.70
2018-02-17T12:55:41.533Z,11.70
2018-02-17T12:58:09.097Z,11.70
2018-02-17T13:00:37.384Z,11.60
2018-02-17T13:03:04.916Z,11.90
2018-02-17T13:05:32.476Z,11.60
2018-02-17T13:08:00.016Z,11.60
2018-02-17T13:10:27.571Z,11.70
2018-02-17T13:12:55.875Z,11.80
2018-02-17T13:15:23.408Z,11.80
2018-02-17T13:17:51.716Z,12.00
2018-02-17T13:20:19.245Z,12.00
2018-02-17T13:22:47.545Z,12.00
2018-02-17T13:25:15.098Z,12.00
2018-02-17T13:27:43.404Z,12.10
2018-02-17T13:30:10.945Z,12.00
2018-02-17T13:32:38.487Z,12.00
2018-02-17T13:35:06.810Z,12.00
2018-02-17T13:37:34.368Z,12.00
2018-02-17T13:40:01.905Z,12.00
2018-02-17T13:42:29.452Z,12.00
2018-02-17T13:44:56.996Z,12.00
2018-02-17T13:47:24.536Z,12.00
2018-02-17T13:49:52.088Z,12.00
2018-02-17T13:52:19.655Z,12.00
2018-02-17T13:54:47.199Z,12.00
2018-02-17T13:57:14.740Z,12.00
2018-02-17T13:59:42.408Z,12.00
2018-02-17T14:02:09.800Z,12.00
2018-02-17T14:04:37.343Z,12.00
2018-02-17T14:07:05.640Z,12.00
2018-02-17T14:09:33.180Z,12.00
2018-02-17T14:12:00.710Z,11.90
2018-02-17T14:14:28.248Z,11.90
2018-02-17T14:16:56.544Z,11.90
2018-02-17T14:19:24.084Z,12.00
2018-02-17T14:21:52.386Z,11.90
2018-02-17T14:24:19.941Z,11.90
2018-02-17T14:26:47.454Z,11.90
2018-02-17T14:29:14.983Z,11.90
2018-02-17T14:31:42.556Z,11.80
2018-02-17T14:34:10.237Z,11.90
2018-02-17T14:36:37.804Z,11.80
2018-02-17T14:39:05.339Z,11.80
2018-02-17T14:41:32.865Z,11.70
2018-02-17T14:44:01.180Z,11.80
2018-02-17T14:46:28.696Z,11.80
2018-02-17T14:48:57.016Z,11.70
2018-02-17T14:51:24.576Z,11.70
2018-02-17T14:53:52.111Z,11.60
2018-02-17T14:56:19.671Z,11.50
2018-02-17T14:58:47.191Z,11.50
2018-02-17T15:01:14.729Z,11.50
2018-02-17T15:03:42.267Z,11.40
2018-02-17T15:06:09.808Z,11.40
2018-02-17T15:08:37.320Z,11.40
2018-02-17T15:11:04.896Z,11.30
2018-02-17T15:13:32.438Z,11.30
2018-02-17T15:15:59.980Z,11.30
2018-02-17T15:18:27.500Z,11.20
2018-02-17T15:20:55.809Z,11.10
2018-02-17T15:23:23.352Z,11.00
2018-02-17T15:25:50.901Z,11.10
2018-02-17T15:28:18.476Z,11.00
2018-02-17T15:30:46.004Z,11.00
2018-02-17T15:33:13.544Z,11.00
2018-02-17T15:35:41.071Z,10.90
2018-02-17T15:38:08.616Z,10.90
2018-02-17T15:40:36.232Z,10.90
2018-02-17T15:43:03.768Z,10.90
2018-02-17T15:45:31.276Z,10.80
2018-02-17T15:47:58.828Z,10.80
2018-02-17T15:50:26.348Z,10.70
2018-02-17T15:52:53.879Z,10.70
2018-02-17T15:55:21.413Z,10.70
2018-02-17T15:57:49.071Z,10.70
2018-02-17T16:00:16.610Z,10.60
2018-02-17T16:02:44.937Z,10.50
2018-02-17T16:05:12.456Z,10.50
2018-02-17T16:07:39.964Z,10.50
2018-02-17T16:10:07.504Z,10.50
2018-02-17T16:12:35.016Z,10.40
2018-02-17T16:15:03.320Z,10.40
2018-02-17T16:17:30.840Z,10.50
2018-02-17T16:19:58.372Z,10.40
2018-02-17T16:22:25.880Z,10.40
2018-02-17T16:24:54.174Z,10.30
2018-02-17T16:27:21.696Z,10.10
2018-02-17T16:29:49.228Z,10.30
2018-02-17T16:32:16.745Z,10.30
2018-02-17T16:34:45.033Z,10.20
2018-02-17T16:37:12.552Z,10.20
2018-02-17T16:39:40.080Z,10.20
2018-02-17T16:42:07.595Z,10.30
2018-02-17T16:44:35.892Z,10.30
2018-02-17T16:47:03.405Z,10.20
2018-02-17T16:49:30.962Z,10.20
2018-02-17T16:51:58.482Z,10.20
2018-02-17T16:54:25.992Z,10.20
2018-02-17T16:56:53.524Z,10.20
2018-02-17T16:59:21.070Z,10.10
2018-02-17T17:01:48.600Z,10.10
2018-02-17T17:04:16.878Z,10.10
2018-02-17T17:06:45.195Z,10.10
2018-02-17T17:09:12.714Z,10.20
2018-02-17T17:11:41.008Z,10.00
2018-02-17T17:14:08.527Z,10.00
2018-02-17T17:16:36.832Z,10.00
2018-02-17T17:19:05.160Z,10.00
2018-02-17T17:21:32.707Z,9.90
2018-02-17T17:24:00.274Z,10.00
2018-02-17T17:26:27.804Z,10.00
2018-02-17T17:28:55.317Z,10.00
2018-02-17T17:31:22.855Z,9.90
2018-02-17T17:33:50.364Z,9.90
2018-02-17T17:36:18.637Z,9.90
2018-02-17T17:38:46.929Z,9.90
2018-02-17T17:41:14.435Z,10.10
2018-02-17T17:43:41.970Z,9.80
2018-02-17T17:46:09.477Z,9.80
2018-02-17T17:48:37.057Z,9.80
2018-02-17T17:51:05.336Z,9.80
2018-02-17T17:53:33.627Z,9.80
2018-02-17T17:56:01.168Z,10.10
2018-02-17T17:58:28.680Z,9.70
2018-02-17T18:00:56.196Z,9.70
2018-02-17T18:03:24.479Z,9.70
2018-02-17T18:05:52.752Z,9.70
2018-02-17T18:08:21.039Z,9.70
2018-02-17T18:10:48.556Z,10.00
2018-02-17T18:13:16.164Z,9.70
2018-02-17T18:15:43.679Z,9.70
2018-02-17T18:18:11.208Z,9.60
2018-02-17T18:20:38.711Z,9.60
2018-02-17T18:23:06.280Z,9.60
2018-02-17T18:25:34.547Z,9.60
2018-02-17T18:28:02.048Z,9.90
2018-02-17T18:30:29.576Z,9.60
2018-02-17T18:32:57.856Z,9.60
2018-02-17T18:37:59.936Z,9.70
2018-02-17T18:40:28.239Z,9.50
2018-02-17T18:42:55.759Z,9.50
2018-02-17T18:45:23.278Z,9.50
2018-02-17T18:47:50.782Z,9.50
2018-02-17T18:50:18.303Z,9.50
2018-02-17T18:52:45.819Z,9.50
2018-02-17T18:55:14.109Z,9.50
2018-02-17T18:57:41.628Z,9.50
2018-02-17T19:00:09.172Z,9.50
2018-02-17T19:02:36.675Z,9.50
2018-02-17T19:05:04.952Z,9.40
2018-02-17T19:07:33.312Z,9.50
2018-02-17T19:10:00.819Z,9.60
2018-02-17T19:12:28.351Z,9.40
2018-02-17T19:14:56.624Z,9.40
2018-02-17T19:17:24.933Z,9.40
2018-02-17T19:19:52.440Z,9.40
2018-02-17T19:22:19.970Z,9.40
2018-02-17T19:24:47.479Z,9.40
2018-02-17T19:27:15.004Z,9.40
2018-02-17T19:29:42.512Z,9.40
2018-02-17T19:32:10.809Z,9.40
2018-02-17T19:34:38.372Z,9.50
2018-02-17T19:37:06.636Z,9.40
2018-02-17T19:39:34.907Z,9.40
2018-02-17T19:42:03.219Z,9.40
2018-02-17T19:44:30.735Z,9.40
2018-02-17T19:46:59.008Z,9.30
2018-02-17T19:49:26.526Z,9.20
2018-02-17T19:51:54.028Z,9.30
2018-02-17T19:54:21.545Z,9.30
2018-02-17T19:56:49.048Z,9.30
2018-02-17T19:59:17.345Z,9.30
2018-02-17T20:01:45.648Z,9.30
2018-02-17T20:04:13.180Z,9.20
2018-02-17T20:06:41.461Z,9.30
2018-02-17T20:09:08.987Z,9.20
2018-02-17T20:11:36.504Z,9.30
2018-02-17T20:14:04.036Z,9.30
2018-02-17T20:16:32.316Z,9.20
2018-02-17T20:19:00.637Z,9.30
2018-02-17T20:21:28.150Z,9.40
2018-02-17T20:23:56.437Z,9.20
2018-02-17T20:26:23.965Z,9.10
2018-02-17T20:28:51.473Z,9.20
2018-02-17T20:31:18.991Z,9.20
2018-02-17T20:33:46.497Z,9.20
2018-02-17T20:36:14.027Z,9.20
2018-02-17T20:38:42.299Z,9.20
2018-02-17T20:41:10.591Z,9.20
2018-02-17T20:43:38.108Z,9.20
2018-02-17T20:46:05.637Z,9.20
2018-02-17T20:48:33.155Z,9.20
2018-02-17T20:51:01.448Z,9.20
2018-02-17T20:53:28.964Z,9.10
2018-02-17T20:55:56.518Z,9.20
2018-02-17T20:58:24.040Z,9.20
2018-02-17T21:00:51.548Z,9.20
2018-02-17T21:03:19.071Z,9.10
2018-02-17T21:05:46.575Z,9.10
2018-02-17T21:08:14.105Z,9.10
2018-02-17T21:10:41.627Z,9.10
2018-02-17T21:13:09.167Z,9.10
2018-02-17T21:15:37.483Z,9.20
2018-02-17T21:18:05.056Z,9.10
2018-02-17T21:20:32.583Z,9.20
2018-02-17T21:23:00.885Z,9.10
2018-02-17T21:25:28.398Z,9.00
2018-02-17T21:27:55.927Z,9.10
2018-02-17T21:30:23.440Z,9.10
2018-02-17T21:32:50.960Z,9.10
2018-02-17T21:35:18.536Z,9.10
2018-02-17T21:37:46.018Z,9.10
2018-02-17T21:40:14.308Z,9.10
2018-02-17T21:42:41.815Z,9.10
2018-02-17T21:45:09.343Z,9.10
2018-02-17T21:47:36.863Z,9.10
2018-02-17T21:50:05.164Z,9.10
2018-02-17T21:52:32.684Z,9.00
2018-02-17T21:55:00.217Z,9.10
2018-02-17T21:57:27.736Z,9.10
2018-02-17T21:59:55.264Z,9.00
2018-02-17T22:02:22.781Z,9.10
2018-02-17T22:04:50.307Z,9.00
2018-02-17T22:07:18.575Z,9.00
2018-02-17T22:09:46.869Z,9.00
2018-02-17T22:12:15.160Z,9.00
2018-02-17T22:14:42.672Z,9.00
2018-02-17T22:17:10.208Z,9.00
2018-02-17T22:19:37.726Z,9.00
2018-02-17T22:22:06.016Z,9.00
2018-02-17T22:24:33.528Z,8.90
2018-02-17T22:27:01.049Z,9.00
2018-02-17T22:29:28.580Z,9.00
2018-02-17T22:31:56.868Z,9.00
2018-02-17T22:34:24.411Z,9.10
2018-02-17T22:36:52.707Z,9.00
2018-02-17T22:39:20.219Z,9.10
2018-02-17T22:41:47.766Z,9.00
2018-02-17T22:44:15.279Z,8.90
2018-02-17T22:46:42.803Z,9.00
2018-02-17T22:49:10.327Z,9.00
2018-02-17T22:51:37.832Z,8.90
2018-02-17T22:54:05.396Z,8.90
2018-02-17T22:56:33.688Z,8.90
2018-02-17T22:59:01.980Z,8.90
2018-02-17T23:01:29.498Z,9.10
2018-02-17T23:03:57.040Z,8.90
2018-02-17T23:06:24.564Z,8.90
2018-02-17T23:08:52.093Z,8.90
2018-02-17T23:11:19.599Z,8.90
2018-02-17T23:13:47.111Z,8.90
2018-02-17T23:16:14.727Z,8.90
2018-02-17T23:18:42.273Z,8.90
2018-02-17T23:21:09.786Z,8.90
2018-02-17T23:23:37.307Z,8.90
2018-02-17T23:26:04.832Z,8.90
2018-02-17T23:28:33.108Z,8.90
2018-02-17T23:31:01.392Z,8.90
2018-02-17T23:33:29.663Z,8.90
2018-02-17T23:35:57.952Z,8.90
2018-02-17T23:38:25.452Z,8.80
2018-02-17T23:40:52.998Z,8.90
2018-02-17T23:43:20.516Z,8.90
2018-02-17T23:45:48.808Z,8.90
2018-02-17T23:48:16.315Z,9.20
2018-02-17T23:50:43.848Z,8.90
2018-02-17T23:53:11.352Z,8.90
2018-02-17T23:55:38.882Z,8.90
2018-02-17T23:58:06.428Z,8.90
